createdAt,value
2022-12-25T00:00:05.766Z,3.78
2022-12-25T00:01:37.892Z,3.85
2022-12-25T00:03:10.120Z,5.10
2022-12-25T00:04:42.311Z,3.28
2022-12-25T00:06:14.751Z,3.83
2022-12-25T00:07:46.851Z,5.00
2022-12-25T00:09:19.006Z,4.72
2022-12-25T00:11:07.392Z,4.85
2022-12-25T00:12:39.592Z,3.30
2022-12-25T00:14:11.793Z,4.63
2022-12-25T00:15:43.896Z,4.63
2022-12-25T00:17:16.283Z,4.53
2022-12-25T00:18:48.762Z,3.75
2022-12-25T00:20:20.978Z,5.13
2022-12-25T00:21:53.019Z,4.07
2022-12-25T00:23:25.391Z,4.22
2022-12-25T00:24:57.441Z,4.68
2022-12-25T00:26:29.587Z,3.72
2022-12-25T00:28:01.634Z,4.13
2022-12-25T00:29:33.833Z,4.75
2022-12-25T00:31:10.768Z,4.80
2022-12-25T00:32:43.024Z,3.88
2022-12-25T00:34:15.091Z,4.07
2022-12-25T00:36:00.884Z,3.88
2022-12-25T00:37:33.042Z,3.58
2022-12-25T00:39:05.283Z,3.13
2022-12-25T00:40:44.302Z,3.47
2022-12-25T00:42:19.309Z,3.47
2022-12-25T00:43:51.345Z,4.03
2022-12-25T00:45:23.453Z,3.67
2022-12-25T00:46:55.715Z,3.00
2022-12-25T00:48:29.458Z,3.80
2022-12-25T00:50:01.746Z,3.55
2022-12-25T00:51:35.595Z,4.32
2022-12-25T00:53:07.852Z,3.53
2022-12-25T00:54:39.981Z,3.97
2022-12-25T00:56:12.075Z,3.20
2022-12-25T00:57:44.210Z,2.33
2022-12-25T00:59:16.276Z,3.90
2022-12-25T01:00:49.910Z,3.70
2022-12-25T01:02:25.383Z,2.85
2022-12-25T01:03:57.833Z,3.33
2022-12-25T01:05:29.942Z,3.35
2022-12-25T01:07:02.039Z,3.45
2022-12-25T01:08:37.025Z,3.70
2022-12-25T01:10:22.869Z,3.85
2022-12-25T01:11:54.943Z,4.05
2022-12-25T01:13:31.075Z,4.20
2022-12-25T01:15:05.325Z,2.53
2022-12-25T01:16:37.894Z,3.83
2022-12-25T01:18:12.890Z,4.43
2022-12-25T01:19:45.277Z,2.75
2022-12-25T01:21:20.122Z,4.20
2022-12-25T01:22:52.342Z,2.72
2022-12-25T01:24:26.067Z,3.92
2022-12-25T01:26:08.113Z,4.07
2022-12-25T01:27:41.979Z,6.05
2022-12-25T01:29:14.137Z,4.57
2022-12-25T01:30:49.744Z,5.43
2022-12-25T01:32:21.782Z,3.13
2022-12-25T01:33:53.913Z,3.10
2022-12-25T01:35:26.035Z,3.45
2022-12-25T01:36:58.285Z,4.70
2022-12-25T01:38:30.460Z,3.15
2022-12-25T01:40:02.512Z,4.45
2022-12-25T01:41:35.642Z,2.83
2022-12-25T01:43:32.089Z,3.40
2022-12-25T01:45:25.762Z,3.15
2022-12-25T01:48:34.320Z,3.22
2022-12-25T01:50:07.084Z,3.50
2022-12-25T01:53:14.095Z,3.42
2022-12-25T01:54:55.016Z,3.05
2022-12-25T01:56:29.044Z,3.95
2022-12-25T01:58:01.234Z,3.28
2022-12-25T01:59:33.435Z,4.95
2022-12-25T02:01:05.663Z,3.40
2022-12-25T02:02:38.431Z,3.65
2022-12-25T02:05:51.037Z,3.40
2022-12-25T02:07:26.538Z,3.50
2022-12-25T02:08:59.380Z,4.35
2022-12-25T02:10:31.473Z,3.28
2022-12-25T02:12:04.242Z,3.63
2022-12-25T02:13:36.396Z,2.90
2022-12-25T02:15:14.516Z,2.88
2022-12-25T02:16:57.292Z,4.40
2022-12-25T02:18:33.365Z,3.83
2022-12-25T02:20:47.199Z,3.88
2022-12-25T02:22:41.048Z,3.47
2022-12-25T02:24:40.072Z,3.22
2022-12-25T02:26:23.074Z,2.88
2022-12-25T02:28:10.610Z,3.70
2022-12-25T02:29:54.784Z,3.25
2022-12-25T02:31:45.795Z,2.60
2022-12-25T02:33:44.150Z,2.50
2022-12-25T02:35:31.239Z,3.58
2022-12-25T02:37:38.050Z,3.55
2022-12-25T02:39:39.989Z,4.30
2022-12-25T02:41:16.014Z,4.78
2022-12-25T02:43:10.955Z,4.53
2022-12-25T02:45:04.634Z,3.10
2022-12-25T02:46:55.421Z,4.00
2022-12-25T02:48:50.699Z,4.30
2022-12-25T02:50:43.174Z,3.08
2022-12-25T02:52:39.302Z,3.40
2022-12-25T02:54:32.982Z,3.80
2022-12-25T02:58:18.392Z,3.50
2022-12-25T03:00:11.060Z,3.88
2022-12-25T03:02:03.581Z,2.97
2022-12-25T03:03:58.989Z,3.05
2022-12-25T03:05:51.757Z,3.53
2022-12-25T03:07:26.153Z,3.80
2022-12-25T03:09:21.702Z,3.88
2022-12-25T03:11:32.507Z,4.22
2022-12-25T03:13:11.777Z,3.22
2022-12-25T03:15:03.701Z,5.07
2022-12-25T03:16:54.157Z,3.60
2022-12-25T03:18:29.244Z,4.18
2022-12-25T03:20:19.907Z,3.83
2022-12-25T03:22:12.999Z,4.60
2022-12-25T03:24:09.604Z,4.38
2022-12-25T03:26:00.622Z,3.80
2022-12-25T03:27:34.709Z,3.53
2022-12-25T03:29:06.917Z,3.58
2022-12-25T03:31:06.997Z,3.17
2022-12-25T03:32:47.663Z,3.95
2022-12-25T03:34:54.040Z,4.80
2022-12-25T03:36:35.558Z,4.47
2022-12-25T03:38:41.811Z,3.05
2022-12-25T03:40:53.093Z,3.00
2022-12-25T03:42:49.552Z,4.03
2022-12-25T03:45:30.907Z,4.13
2022-12-25T03:47:35.610Z,3.20
2022-12-25T03:49:52.768Z,3.28
2022-12-25T03:51:49.731Z,4.05
2022-12-25T03:53:48.488Z,2.58
2022-12-25T03:55:40.304Z,3.58
2022-12-25T03:57:32.707Z,3.47
2022-12-25T03:59:24.221Z,2.92
2022-12-25T04:01:15.402Z,3.47
2022-12-25T04:03:06.061Z,3.10
2022-12-25T04:04:57.297Z,3.22
2022-12-25T04:06:47.766Z,3.63
2022-12-25T04:08:38.432Z,3.05
2022-12-25T04:10:29.085Z,3.55
2022-12-25T04:12:19.838Z,3.83
2022-12-25T04:14:10.569Z,3.05
2022-12-25T04:16:01.449Z,4.05
2022-12-25T04:17:52.097Z,3.72
2022-12-25T04:19:43.118Z,3.67
2022-12-25T04:21:33.631Z,3.58
2022-12-25T04:23:24.625Z,3.15
2022-12-25T04:25:15.231Z,2.97
2022-12-25T04:27:05.821Z,4.32
2022-12-25T04:28:56.445Z,3.60
2022-12-25T04:30:46.798Z,3.53
2022-12-25T04:32:37.461Z,4.22
2022-12-25T04:34:28.160Z,3.33
2022-12-25T04:36:09.375Z,3.85
2022-12-25T04:37:41.547Z,3.72
2022-12-25T04:39:13.763Z,3.60
2022-12-25T04:40:45.865Z,3.95
2022-12-25T04:42:18.079Z,3.25
2022-12-25T04:43:50.237Z,3.10
2022-12-25T04:45:22.721Z,3.10
2022-12-25T04:46:55.010Z,2.80
2022-12-25T04:48:27.804Z,3.72
2022-12-25T04:49:59.938Z,2.60
2022-12-25T04:51:32.080Z,2.67
2022-12-25T04:53:04.210Z,2.97
2022-12-25T04:54:38.343Z,2.92
2022-12-25T04:56:10.506Z,2.08
2022-12-25T04:57:42.615Z,3.38
2022-12-25T04:59:14.779Z,2.35
2022-12-25T05:00:46.873Z,3.38
2022-12-25T05:02:19.200Z,3.35
2022-12-25T05:03:51.863Z,3.00
2022-12-25T05:05:24.398Z,3.00
2022-12-25T05:06:56.476Z,3.58
2022-12-25T05:08:30.620Z,3.13
2022-12-25T05:10:02.718Z,3.17
2022-12-25T05:11:34.872Z,3.17
2022-12-25T05:13:06.967Z,3.60
2022-12-25T05:14:40.180Z,5.97
2022-12-25T05:16:15.970Z,2.80
2022-12-25T05:17:48.175Z,3.67
2022-12-25T05:19:20.299Z,2.58
2022-12-25T05:20:55.831Z,2.92
2022-12-25T05:22:27.958Z,3.92
2022-12-25T05:24:00.025Z,3.88
2022-12-25T05:25:32.216Z,2.77
2022-12-25T05:27:04.336Z,3.08
2022-12-25T05:28:36.905Z,4.37
2022-12-25T05:30:09.504Z,3.38
2022-12-25T05:31:41.716Z,3.03
2022-12-25T05:33:15.279Z,3.17
2022-12-25T05:34:47.350Z,4.75
2022-12-25T05:36:19.474Z,3.83
2022-12-25T05:37:51.660Z,3.58
2022-12-25T05:39:24.311Z,3.72
2022-12-25T05:40:56.416Z,3.50
2022-12-25T05:42:28.571Z,3.75
2022-12-25T05:44:00.688Z,2.53
2022-12-25T05:45:32.788Z,3.60
2022-12-25T05:47:05.144Z,3.05
2022-12-25T05:48:38.125Z,3.00
2022-12-25T05:50:11.225Z,3.10
2022-12-25T05:51:43.352Z,4.05
2022-12-25T05:53:16.062Z,3.08
2022-12-25T05:54:48.215Z,4.70
2022-12-25T05:56:20.412Z,3.92
2022-12-25T05:57:52.526Z,3.63
2022-12-25T05:59:24.659Z,3.83
2022-12-25T06:00:57.496Z,3.75
2022-12-25T06:04:04.629Z,3.30
2022-12-25T06:05:40.523Z,3.67
2022-12-25T06:07:12.688Z,3.83
2022-12-25T06:08:45.010Z,3.85
2022-12-25T06:10:17.103Z,3.60
2022-12-25T06:11:49.180Z,3.08
2022-12-25T06:13:21.351Z,3.13
2022-12-25T06:14:53.422Z,3.40
2022-12-25T06:16:25.610Z,4.25
2022-12-25T06:18:00.403Z,2.33
2022-12-25T06:19:32.605Z,2.70
2022-12-25T06:21:13.010Z,3.70
2022-12-25T06:22:45.341Z,3.47
2022-12-25T06:24:21.282Z,3.13
2022-12-25T06:25:53.825Z,3.70
2022-12-25T06:27:26.119Z,4.88
2022-12-25T06:28:58.355Z,3.28
2022-12-25T06:30:30.508Z,3.33
2022-12-25T06:32:03.146Z,3.35
2022-12-25T06:33:35.598Z,2.88
2022-12-25T06:35:08.086Z,4.07
2022-12-25T06:36:40.198Z,3.55
2022-12-25T06:38:12.414Z,4.68
2022-12-25T06:39:44.500Z,3.60
2022-12-25T06:41:21.860Z,3.65
2022-12-25T06:42:53.979Z,3.42
2022-12-25T06:44:26.261Z,3.35
2022-12-25T06:46:03.281Z,3.92
2022-12-25T06:47:36.514Z,3.00
2022-12-25T06:49:10.627Z,3.38
2022-12-25T06:50:44.277Z,2.78
2022-12-25T06:52:16.476Z,4.07
2022-12-25T06:53:49.958Z,3.38
2022-12-25T06:55:22.111Z,3.25
2022-12-25T06:56:54.252Z,2.90
2022-12-25T06:58:26.306Z,3.22
2022-12-25T06:59:58.476Z,3.03
2022-12-25T07:01:52.859Z,2.77
2022-12-25T07:03:28.564Z,3.15
2022-12-25T07:05:02.049Z,2.63
2022-12-25T07:06:34.665Z,4.57
2022-12-25T07:08:06.745Z,3.58
2022-12-25T07:09:39.650Z,2.97
2022-12-25T07:11:12.184Z,3.90
2022-12-25T07:12:44.281Z,3.80
2022-12-25T07:14:24.236Z,3.33
2022-12-25T07:15:57.922Z,3.13
2022-12-25T07:17:30.041Z,4.30
2022-12-25T07:19:02.098Z,3.17
2022-12-25T07:20:34.159Z,3.83
2022-12-25T07:22:06.277Z,3.50
2022-12-25T07:23:38.626Z,3.67
2022-12-25T07:25:10.764Z,2.72
2022-12-25T07:26:42.856Z,3.60
2022-12-25T07:28:14.953Z,4.15
2022-12-25T07:29:47.012Z,3.65
2022-12-25T07:31:19.363Z,5.18
2022-12-25T07:32:51.765Z,4.88
2022-12-25T07:34:24.098Z,3.53
2022-12-25T07:35:56.219Z,3.83
2022-12-25T07:37:28.385Z,3.03
2022-12-25T07:39:00.552Z,3.80
2022-12-25T07:40:32.960Z,4.10
2022-12-25T07:42:05.114Z,4.60
2022-12-25T07:43:37.554Z,3.97
2022-12-25T07:45:10.108Z,4.97
2022-12-25T07:46:42.622Z,3.38
2022-12-25T07:48:16.857Z,4.47
2022-12-25T07:49:49.284Z,5.03
2022-12-25T07:51:21.573Z,5.07
2022-12-25T07:52:53.646Z,4.80
2022-12-25T07:54:26.390Z,5.38
2022-12-25T07:56:01.558Z,5.13
2022-12-25T07:57:34.528Z,3.58
2022-12-25T08:00:38.718Z,4.93
2022-12-25T08:02:11.702Z,5.43
2022-12-25T08:03:44.618Z,6.05
2022-12-25T08:06:49.066Z,5.38
2022-12-25T08:08:21.213Z,5.00
2022-12-25T08:09:53.259Z,4.97
2022-12-25T08:11:25.450Z,6.55
2022-12-25T08:12:57.588Z,8.57
2022-12-25T08:14:29.867Z,7.80
2022-12-25T08:16:03.905Z,7.68
2022-12-25T08:17:36.059Z,7.78
2022-12-25T08:19:09.068Z,10.53
2022-12-25T08:22:13.075Z,10.77
2022-12-25T08:23:46.776Z,9.15
2022-12-25T08:25:18.947Z,10.18
2022-12-25T08:26:51.048Z,8.63
2022-12-25T08:28:23.115Z,8.95
2022-12-25T08:29:55.238Z,8.35
2022-12-25T08:31:29.664Z,8.88
2022-12-25T08:33:02.086Z,7.65
2022-12-25T08:34:34.210Z,7.65
2022-12-25T08:36:10.332Z,6.15
2022-12-25T08:37:42.464Z,6.97
2022-12-25T08:39:14.582Z,7.38
2022-12-25T08:40:46.690Z,7.72
2022-12-25T08:42:18.769Z,6.68
2022-12-25T08:43:50.874Z,5.00
2022-12-25T08:45:23.204Z,7.18
2022-12-25T08:46:55.358Z,6.70
2022-12-25T08:48:27.492Z,5.50
2022-12-25T08:49:59.609Z,6.20
2022-12-25T08:51:32.172Z,6.45
2022-12-25T08:53:04.222Z,6.20
2022-12-25T08:54:36.560Z,6.23
2022-12-25T08:56:08.824Z,6.03
2022-12-25T08:57:41.216Z,7.03
2022-12-25T08:59:13.356Z,6.05
2022-12-25T09:00:45.517Z,5.70
2022-12-25T09:02:18.710Z,7.83
2022-12-25T09:03:51.170Z,5.50
2022-12-25T09:05:23.357Z,6.53
2022-12-25T09:06:55.950Z,8.20
2022-12-25T09:08:28.017Z,8.07
2022-12-25T09:10:00.160Z,6.75
2022-12-25T09:11:32.356Z,7.80
2022-12-25T09:13:05.215Z,8.00
2022-12-25T09:14:37.309Z,8.30
2022-12-25T09:16:15.277Z,8.50
2022-12-25T09:17:47.623Z,7.35
2022-12-25T09:19:19.866Z,8.63
2022-12-25T09:21:04.268Z,8.80
2022-12-25T09:22:36.436Z,7.50
2022-12-25T09:24:08.771Z,7.25
2022-12-25T09:25:40.930Z,8.80
2022-12-25T09:27:13.130Z,9.27
2022-12-25T09:28:51.245Z,7.25
2022-12-25T09:30:24.262Z,7.20
2022-12-25T09:31:56.420Z,7.07
2022-12-25T09:33:28.618Z,7.20
2022-12-25T09:35:00.789Z,7.07
2022-12-25T09:36:32.927Z,8.73
2022-12-25T09:38:05.046Z,9.18
2022-12-25T09:39:42.163Z,6.43
2022-12-25T09:41:29.954Z,6.75
2022-12-25T09:43:03.820Z,6.75
2022-12-25T09:44:40.577Z,5.72
2022-12-25T09:46:17.313Z,7.65
2022-12-25T09:47:50.588Z,9.30
2022-12-25T09:49:37.310Z,8.88
2022-12-25T09:51:14.928Z,7.65
2022-12-25T09:53:12.802Z,6.63
2022-12-25T09:54:44.896Z,6.57
2022-12-25T09:56:26.490Z,6.97
2022-12-25T09:58:01.160Z,8.73
2022-12-25T09:59:33.274Z,7.32
2022-12-25T10:01:13.864Z,6.38
2022-12-25T10:03:07.775Z,6.80
2022-12-25T10:05:18.444Z,6.53
2022-12-25T10:07:16.069Z,7.28
2022-12-25T10:09:09.162Z,9.48
2022-12-25T10:10:52.685Z,6.72
2022-12-25T10:12:37.665Z,9.40
2022-12-25T10:14:29.965Z,9.13
2022-12-25T10:16:11.157Z,8.18
2022-12-25T10:17:50.059Z,6.70
2022-12-25T10:19:24.963Z,8.48
2022-12-25T10:21:01.404Z,8.02
2022-12-25T10:22:42.459Z,7.60
2022-12-25T10:24:30.892Z,8.43
2022-12-25T10:26:04.505Z,9.20
2022-12-25T10:27:42.943Z,8.30
2022-12-25T10:29:19.563Z,9.18
2022-12-25T10:30:52.602Z,9.23
2022-12-25T10:32:24.779Z,9.80
2022-12-25T10:33:57.566Z,8.25
2022-12-25T10:35:31.638Z,9.15
2022-12-25T10:37:03.784Z,8.63
2022-12-25T10:38:36.841Z,8.02
2022-12-25T10:40:24.124Z,9.13
2022-12-25T10:42:08.646Z,9.02
2022-12-25T10:43:49.051Z,8.65
2022-12-25T10:45:21.672Z,8.85
2022-12-25T10:46:58.158Z,6.03
2022-12-25T10:48:32.564Z,8.50
2022-12-25T10:50:20.227Z,8.35
2022-12-25T10:51:52.599Z,8.90
2022-12-25T10:53:27.381Z,7.82
2022-12-25T10:55:11.315Z,8.63
2022-12-25T10:56:53.539Z,8.13
2022-12-25T10:58:26.057Z,7.60
2022-12-25T10:59:58.198Z,8.32
2022-12-25T11:01:30.396Z,7.65
2022-12-25T11:03:02.653Z,7.80
2022-12-25T11:04:35.844Z,7.72
2022-12-25T11:07:56.187Z,8.45
2022-12-25T11:09:28.901Z,7.40
2022-12-25T11:11:06.574Z,7.00
2022-12-25T11:12:43.367Z,7.10
2022-12-25T11:14:20.773Z,7.57
2022-12-25T11:16:15.237Z,8.70
2022-12-25T11:17:49.730Z,8.77
2022-12-25T11:19:24.352Z,8.70
2022-12-25T11:20:59.163Z,6.53
2022-12-25T11:22:31.360Z,7.75
2022-12-25T11:24:06.934Z,9.35
2022-12-25T11:25:38.966Z,8.18
2022-12-25T11:27:27.668Z,6.75
2022-12-25T11:28:59.866Z,8.10
2022-12-25T11:30:34.522Z,7.95
2022-12-25T11:32:16.531Z,5.90
2022-12-25T11:33:55.176Z,7.90
2022-12-25T11:35:32.284Z,6.85
2022-12-25T11:37:11.305Z,6.70
2022-12-25T11:38:43.559Z,7.47
2022-12-25T11:40:21.009Z,7.80
2022-12-25T11:42:17.666Z,5.95
2022-12-25T11:43:56.088Z,6.25
2022-12-25T11:45:36.407Z,5.60
2022-12-25T11:47:19.947Z,5.88
2022-12-25T11:49:00.661Z,5.45
2022-12-25T11:50:42.988Z,7.15
2022-12-25T11:52:17.214Z,6.85
2022-12-25T11:53:54.122Z,6.85
2022-12-25T11:55:46.319Z,7.38
2022-12-25T11:57:18.931Z,6.80
2022-12-25T11:59:18.245Z,7.07
2022-12-25T12:00:54.694Z,7.55
2022-12-25T12:02:35.690Z,7.25
2022-12-25T12:04:16.142Z,6.50
2022-12-25T12:05:51.786Z,6.72
2022-12-25T12:07:32.333Z,6.85
2022-12-25T12:09:14.879Z,7.82
2022-12-25T12:11:18.828Z,7.40
2022-12-25T12:13:11.466Z,7.28
2022-12-25T12:14:52.551Z,7.90
2022-12-25T12:16:24.953Z,6.20
2022-12-25T12:18:31.032Z,6.13
2022-12-25T12:20:34.115Z,6.20
2022-12-25T12:22:06.724Z,6.47
2022-12-25T12:23:48.486Z,6.45
2022-12-25T12:25:22.036Z,7.18
2022-12-25T12:27:03.908Z,6.25
2022-12-25T12:28:47.181Z,6.38
2022-12-25T12:30:24.431Z,8.25
2022-12-25T12:32:01.932Z,9.13
2022-12-25T12:33:40.436Z,6.97
2022-12-25T12:35:18.133Z,7.63
2022-12-25T12:36:53.288Z,7.63
2022-12-25T12:38:26.030Z,9.07
2022-12-25T12:39:58.620Z,8.00
2022-12-25T12:41:49.621Z,7.82
2022-12-25T12:43:52.700Z,6.70
2022-12-25T12:45:37.801Z,8.30
2022-12-25T12:47:29.388Z,8.23
2022-12-25T12:49:20.141Z,10.77
2022-12-25T12:51:06.205Z,7.30
2022-12-25T12:52:41.057Z,7.90
2022-12-25T12:54:23.287Z,8.80
2022-12-25T12:55:56.330Z,7.45
2022-12-25T12:57:32.906Z,8.20
2022-12-25T12:59:05.077Z,8.75
2022-12-25T13:00:49.091Z,8.48
2022-12-25T13:02:51.126Z,7.50
2022-12-25T13:04:52.147Z,9.02
2022-12-25T13:07:03.326Z,10.07
2022-12-25T13:09:03.931Z,8.70
2022-12-25T13:10:40.771Z,8.20
2022-12-25T13:12:15.069Z,7.75
2022-12-25T13:13:49.404Z,9.85
2022-12-25T13:15:24.954Z,9.98
2022-12-25T13:16:57.189Z,9.73
2022-12-25T13:18:31.726Z,9.95
2022-12-25T13:20:05.111Z,10.02
2022-12-25T13:21:37.288Z,9.77
2022-12-25T13:23:26.463Z,8.70
2022-12-25T13:25:05.166Z,9.70
2022-12-25T13:26:38.992Z,9.32
2022-12-25T13:28:14.903Z,9.88
2022-12-25T13:29:47.000Z,10.30
2022-12-25T13:31:22.571Z,11.45
2022-12-25T13:32:57.020Z,10.55
2022-12-25T13:34:32.825Z,10.40
2022-12-25T13:36:11.147Z,9.88
2022-12-25T13:37:44.491Z,9.60
2022-12-25T13:39:18.161Z,10.85
2022-12-25T13:41:14.257Z,9.13
2022-12-25T13:42:47.415Z,8.68
2022-12-25T13:44:29.983Z,9.43
2022-12-25T13:46:02.259Z,9.25
2022-12-25T13:47:37.120Z,8.77
2022-12-25T13:49:15.267Z,10.90
2022-12-25T13:50:56.721Z,10.85
2022-12-25T13:52:37.758Z,9.82
2022-12-25T13:54:13.106Z,9.73
2022-12-25T13:55:52.526Z,10.45
2022-12-25T13:57:29.137Z,9.13
2022-12-25T13:59:01.631Z,10.45
2022-12-25T14:00:39.591Z,8.98
2022-12-25T14:02:20.855Z,10.02
2022-12-25T14:03:54.710Z,9.95
2022-12-25T14:05:39.820Z,10.45
2022-12-25T14:07:20.715Z,11.50
2022-12-25T14:08:54.768Z,11.02
2022-12-25T14:10:34.715Z,12.25
2022-12-25T14:12:08.600Z,11.77
2022-12-25T14:13:44.394Z,9.77
2022-12-25T14:15:20.955Z,11.82
2022-12-25T14:16:56.346Z,10.10
2022-12-25T14:18:30.015Z,9.70
2022-12-25T14:20:07.921Z,11.45
2022-12-25T14:21:49.318Z,10.13
2022-12-25T14:23:21.593Z,12.07
2022-12-25T14:24:54.060Z,10.02
2022-12-25T14:26:31.907Z,11.60
2022-12-25T14:28:09.139Z,10.15
2022-12-25T14:29:44.762Z,11.73
2022-12-25T14:31:17.197Z,11.60
2022-12-25T14:32:53.553Z,11.40
2022-12-25T14:34:27.583Z,9.75
2022-12-25T14:35:59.994Z,10.50
2022-12-25T14:37:34.341Z,11.80
2022-12-25T14:39:21.243Z,11.65
2022-12-25T14:41:07.612Z,12.55
2022-12-25T14:42:39.758Z,10.98
2022-12-25T14:44:32.136Z,13.05
2022-12-25T14:46:08.150Z,14.40
2022-12-25T14:47:53.567Z,12.40
2022-12-25T14:49:25.888Z,13.52
2022-12-25T14:51:08.005Z,14.65
2022-12-25T14:52:44.560Z,11.63
2022-12-25T14:54:20.341Z,14.35
2022-12-25T14:55:54.122Z,13.45
2022-12-25T14:57:33.998Z,12.60
2022-12-25T14:59:09.627Z,13.07
2022-12-25T15:00:42.543Z,12.55
2022-12-25T15:03:50.881Z,13.07
2022-12-25T15:05:27.208Z,13.57
2022-12-25T15:07:07.042Z,12.70
2022-12-25T15:08:40.259Z,11.77
2022-12-25T15:10:57.604Z,11.77
2022-12-25T15:12:06.224Z,12.43
2022-12-25T15:13:38.355Z,10.85
2022-12-25T15:15:10.653Z,13.07
2022-12-25T15:16:46.043Z,11.45
2022-12-25T15:18:20.231Z,15.73
2022-12-25T15:19:54.615Z,12.73
2022-12-25T15:21:30.159Z,13.88
2022-12-25T15:23:18.835Z,14.70
2022-12-25T15:24:54.711Z,13.27
2022-12-25T15:26:32.321Z,14.55
2022-12-25T15:28:10.879Z,13.13
2022-12-25T15:30:09.156Z,14.13
2022-12-25T15:31:39.893Z,14.15
2022-12-25T15:33:15.646Z,12.15
2022-12-25T15:34:49.975Z,13.13
2022-12-25T15:36:22.842Z,13.15
2022-12-25T15:37:54.928Z,12.23
2022-12-25T15:39:27.002Z,12.80
2022-12-25T15:40:59.434Z,13.52
2022-12-25T15:42:31.453Z,13.27
2022-12-25T15:44:05.443Z,13.40
2022-12-25T15:45:38.306Z,13.43
2022-12-25T15:48:43.321Z,13.43
2022-12-25T15:50:17.144Z,13.23
2022-12-25T15:51:49.262Z,14.68
2022-12-25T15:53:21.415Z,14.35
2022-12-25T15:54:54.239Z,13.82
2022-12-25T15:57:58.688Z,13.90
2022-12-25T15:59:31.272Z,14.52
2022-12-25T16:01:03.585Z,13.82
2022-12-25T16:02:35.809Z,14.32
2022-12-25T16:04:08.040Z,15.25
2022-12-25T16:05:40.217Z,13.52
2022-12-25T16:07:21.728Z,13.50
2022-12-25T16:08:53.845Z,13.90
2022-12-25T16:10:26.027Z,16.03
2022-12-25T16:11:58.203Z,14.13
2022-12-25T16:13:30.417Z,14.80
2022-12-25T16:15:02.646Z,14.40
2022-12-25T16:16:35.555Z,13.25
2022-12-25T16:18:10.342Z,14.60
2022-12-25T16:19:44.850Z,15.10
2022-12-25T16:21:19.997Z,14.02
2022-12-25T16:22:52.087Z,13.05
2022-12-25T16:24:24.324Z,13.32
2022-12-25T16:25:56.431Z,14.77
2022-12-25T16:27:28.554Z,13.88
2022-12-25T16:29:06.761Z,16.80
2022-12-25T16:30:40.368Z,15.10
2022-12-25T16:32:13.703Z,12.10
2022-12-25T16:33:45.843Z,13.32
2022-12-25T16:35:17.997Z,12.23
2022-12-25T16:36:50.093Z,13.43
2022-12-25T16:38:22.291Z,12.30
2022-12-25T16:39:54.511Z,12.10
2022-12-25T16:41:26.744Z,13.27
2022-12-25T16:42:59.205Z,12.43
2022-12-25T16:44:31.361Z,12.15
2022-12-25T16:46:10.291Z,13.02
2022-12-25T16:47:42.419Z,13.27
2022-12-25T16:49:14.931Z,12.70
2022-12-25T16:50:47.116Z,13.68
2022-12-25T16:52:19.253Z,14.82
2022-12-25T16:53:51.336Z,13.17
2022-12-25T16:55:29.456Z,14.57
2022-12-25T16:57:02.289Z,14.30
2022-12-25T16:58:34.963Z,13.90
2022-12-25T17:00:08.751Z,14.20
2022-12-25T17:01:43.441Z,13.57
2022-12-25T17:03:15.771Z,15.50
2022-12-25T17:04:48.454Z,13.48
2022-12-25T17:06:28.352Z,15.68
2022-12-25T17:08:01.184Z,15.30
2022-12-25T17:09:35.432Z,13.27
2022-12-25T17:11:11.809Z,13.93
2022-12-25T17:15:50.779Z,14.50
2022-12-25T17:17:23.285Z,12.52
2022-12-25T17:19:04.407Z,14.90
2022-12-25T17:20:38.129Z,13.60
2022-12-25T17:22:10.487Z,12.57
2022-12-25T17:23:45.072Z,12.95
2022-12-25T17:25:17.299Z,12.65
2022-12-25T17:26:49.455Z,14.00
2022-12-25T17:28:21.666Z,13.65
2022-12-25T17:29:53.821Z,13.93
2022-12-25T17:31:26.018Z,11.82
2022-12-25T17:32:58.229Z,15.63
2022-12-25T17:34:30.302Z,13.90
2022-12-25T17:36:04.289Z,14.32
2022-12-25T17:37:36.381Z,14.90
2022-12-25T17:39:10.484Z,12.75
2022-12-25T17:40:42.853Z,12.85
2022-12-25T17:42:15.022Z,13.23
2022-12-25T17:43:48.115Z,15.30
2022-12-25T17:45:20.379Z,12.88
2022-12-25T17:46:52.585Z,13.13
2022-12-25T17:48:24.953Z,13.85
2022-12-25T17:49:57.176Z,14.93
2022-12-25T17:51:30.868Z,14.48
2022-12-25T17:53:05.248Z,13.00
2022-12-25T17:54:40.542Z,15.15
2022-12-25T17:56:14.149Z,14.93
2022-12-25T17:57:46.400Z,15.63
2022-12-25T17:59:18.978Z,15.43
2022-12-25T18:00:51.391Z,14.10
2022-12-25T18:02:23.724Z,12.77
2022-12-25T18:03:56.365Z,14.55
2022-12-25T18:05:28.632Z,14.07
2022-12-25T18:07:00.762Z,13.18
2022-12-25T18:08:38.971Z,15.75
2022-12-25T18:10:11.973Z,16.38
2022-12-25T18:11:44.093Z,11.98
2022-12-25T18:13:16.341Z,15.48
2022-12-25T18:14:48.516Z,15.52
2022-12-25T18:16:23.204Z,15.20
2022-12-25T18:17:55.354Z,16.25
2022-12-25T18:19:27.524Z,16.02
2022-12-25T18:21:00.049Z,15.85
2022-12-25T18:22:34.257Z,16.63
2022-12-25T18:24:07.469Z,16.00
2022-12-25T18:25:41.609Z,16.98
2022-12-25T18:27:14.156Z,16.02
2022-12-25T18:28:47.514Z,13.93
2022-12-25T18:30:20.111Z,13.98
2022-12-25T18:31:52.366Z,13.10
2022-12-25T18:33:24.979Z,12.52
2022-12-25T18:34:57.170Z,13.50
2022-12-25T18:36:30.425Z,14.05
2022-12-25T18:38:02.570Z,13.25
2022-12-25T18:39:34.741Z,15.95
2022-12-25T18:41:08.123Z,13.20
2022-12-25T18:42:40.339Z,15.38
2022-12-25T18:44:12.512Z,13.20
2022-12-25T18:45:44.698Z,14.73
2022-12-25T18:47:16.893Z,13.90
2022-12-25T18:48:48.974Z,16.80
2022-12-25T18:50:21.132Z,15.07
2022-12-25T18:51:53.296Z,15.30
2022-12-25T18:53:45.557Z,15.20
2022-12-25T18:55:17.629Z,14.70
2022-12-25T18:56:53.560Z,12.75
2022-12-25T18:58:26.409Z,13.32
2022-12-25T19:00:03.126Z,14.27
2022-12-25T19:01:37.090Z,15.10
2022-12-25T19:03:09.544Z,12.20
2022-12-25T19:04:43.609Z,14.40
2022-12-25T19:06:21.360Z,12.98
2022-12-25T19:07:53.627Z,14.50
2022-12-25T19:09:25.822Z,13.57
2022-12-25T19:10:57.961Z,12.32
2022-12-25T19:12:30.077Z,11.90
2022-12-25T19:14:02.187Z,12.07
2022-12-25T19:15:35.840Z,12.70
2022-12-25T19:17:10.595Z,13.48
2022-12-25T19:18:43.512Z,10.95
2022-12-25T19:20:15.761Z,11.93
2022-12-25T19:21:55.351Z,11.55
2022-12-25T19:23:27.483Z,11.77
2022-12-25T19:24:59.640Z,12.25
2022-12-25T19:26:31.780Z,11.57
2022-12-25T19:28:04.291Z,14.57
2022-12-25T19:29:36.414Z,12.88
2022-12-25T19:31:09.759Z,12.00
2022-12-25T19:32:43.300Z,11.60
2022-12-25T19:34:15.681Z,10.18
2022-12-25T19:35:49.048Z,12.90
2022-12-25T19:37:21.194Z,12.15
2022-12-25T19:38:53.826Z,11.70
2022-12-25T19:40:26.455Z,13.02
2022-12-25T19:41:58.565Z,10.98
2022-12-25T19:43:41.899Z,11.65
2022-12-25T19:46:46.017Z,11.25
2022-12-25T19:48:18.097Z,11.10
2022-12-25T19:49:53.211Z,14.18
2022-12-25T19:51:28.216Z,12.85
2022-12-25T19:53:00.371Z,14.13
2022-12-25T19:54:32.530Z,11.50
2022-12-25T19:56:04.859Z,12.07
2022-12-25T19:57:36.963Z,11.70
2022-12-25T19:59:10.821Z,11.32
2022-12-25T20:00:43.027Z,11.95
2022-12-25T20:02:15.427Z,12.48
2022-12-25T20:03:49.400Z,12.23
2022-12-25T20:05:21.585Z,11.90
2022-12-25T20:06:54.340Z,12.45
2022-12-25T20:08:26.612Z,12.50
2022-12-25T20:09:58.739Z,11.55
2022-12-25T20:11:32.502Z,14.30
2022-12-25T20:13:04.765Z,11.55
2022-12-25T20:14:37.301Z,10.07
2022-12-25T20:16:10.370Z,11.20
2022-12-25T20:17:42.697Z,12.20
2022-12-25T20:19:17.308Z,12.20
2022-12-25T20:20:49.481Z,12.40
2022-12-25T20:22:21.587Z,11.13
2022-12-25T20:23:54.319Z,12.07
2022-12-25T20:25:26.548Z,9.60
2022-12-25T20:26:59.382Z,10.52
2022-12-25T20:30:04.984Z,9.55
2022-12-25T20:31:37.221Z,11.73
2022-12-25T20:34:42.387Z,11.07
2022-12-25T20:36:15.218Z,12.10
2022-12-25T20:37:47.339Z,11.70
2022-12-25T20:39:19.600Z,12.77
2022-12-25T20:41:26.232Z,11.35
2022-12-25T20:42:53.932Z,11.10
2022-12-25T20:44:26.070Z,11.18
2022-12-25T20:45:58.897Z,9.93
2022-12-25T20:47:30.984Z,11.88
2022-12-25T20:49:03.458Z,11.77
2022-12-25T20:50:35.587Z,10.07
2022-12-25T20:52:07.909Z,11.63
2022-12-25T20:53:40.414Z,11.65
2022-12-25T20:55:14.234Z,10.73
2022-12-25T20:56:48.501Z,12.98
2022-12-25T20:58:20.631Z,13.75
2022-12-25T20:59:53.549Z,13.47
2022-12-25T21:02:58.899Z,9.70
2022-12-25T21:04:31.218Z,13.30
2022-12-25T21:06:03.491Z,11.35
2022-12-25T21:07:35.755Z,13.52
2022-12-25T21:09:07.832Z,13.43
2022-12-25T21:10:40.022Z,11.48
2022-12-25T21:12:12.145Z,13.38
2022-12-25T21:13:46.226Z,13.40
2022-12-25T21:15:18.338Z,12.43
2022-12-25T21:16:50.979Z,11.85
2022-12-25T21:18:25.141Z,13.40
2022-12-25T21:19:57.350Z,10.15
2022-12-25T21:21:29.521Z,11.98
2022-12-25T21:23:01.685Z,11.23
2022-12-25T21:24:33.930Z,12.80
2022-12-25T21:26:21.437Z,12.20
2022-12-25T21:27:53.562Z,12.63
2022-12-25T21:29:25.818Z,11.75
2022-12-25T21:31:06.381Z,13.27
2022-12-25T21:32:57.880Z,13.65
2022-12-25T21:34:30.721Z,10.57
2022-12-25T21:37:38.737Z,13.48
2022-12-25T21:39:11.247Z,11.07
2022-12-25T21:40:43.683Z,13.48
2022-12-25T21:42:16.340Z,12.48